Time;durP1;ratioP1;P1;durP2;ratioP2;P2;SDS_P1;SDS_P2;PMS_P1;PMS_P2;Temp;Humidity;BMP_temperature;BMP_pressure;BME280_temperature;BME280_humidity;BME280_pressure;Samples;Min_cycle;Max_cycle;Signal;HPM_P1;HPM_P2
2022/03/16 00:02:23;;;;;;;31.35;16.70;;;;;;;3.21;96.70;102545.84;5073246;28;20051;-85
2022/03/16 00:04:54;;;;;;;26.42;16.42;;;;;;;3.15;96.39;102549.53;5072870;28;20036;-84
2022/03/16 00:07:20;;;;;;;25.08;14.80;;;;;;;3.08;95.87;102545.38;5055833;28;20032;-84
2022/03/16 00:09:46;;;;;;;24.52;14.93;;;;;;;2.99;95.33;102550.00;5055241;28;20060;-84
2022/03/16 00:12:13;;;;;;;23.50;14.75;;;;;;;2.93;94.94;102552.00;5059069;28;20051;-84
2022/03/16 00:14:39;;;;;;;27.13;15.55;;;;;;;2.88;95.21;102554.75;5076080;28;20054;-84
2022/03/16 00:17:06;;;;;;;24.38;15.32;;;;;;;2.83;94.93;102552.25;5092930;28;20032;-84
2022/03/16 00:26:04;;;;;;;28.08;16.10;;;;;;;2.68;94.60;102557.13;5010662;28;20041;-84
2022/03/16 00:28:29;;;;;;;27.38;15.40;;;;;;;2.63;94.50;102560.75;5011339;28;20042;-84
2022/03/16 00:30:55;;;;;;;28.00;16.77;;;;;;;2.59;94.44;102551.22;5033544;28;20036;-84
2022/03/16 00:33:21;;;;;;;31.55;16.45;;;;;;;2.54;94.55;102555.78;5093512;28;20042;-84
2022/03/16 00:35:46;;;;;;;33.15;17.25;;;;;;;2.51;94.39;102547.09;5093621;28;20059;-84
2022/03/16 00:38:14;;;;;;;32.58;18.45;;;;;;;2.46;94.26;102548.13;5092735;28;20032;-84
2022/03/16 00:40:43;;;;;;;30.85;16.98;;;;;;;2.43;94.65;102549.97;5092771;28;20036;-84
2022/03/16 00:44:02;;;;;;;29.15;16.75;;;;;;;2.38;94.65;102552.72;5093653;28;20028;-84
2022/03/16 00:46:18;;;;;;;32.95;18.88;;;;;;;2.34;94.76;102555.47;5085801;28;20034;-84
2022/03/16 00:55:31;;;;;;;30.27;16.73;;;;;;;2.18;95.50;102549.78;5008376;28;20088;-84
2022/03/16 00:58:01;;;;;;;29.88;17.15;;;;;;;2.15;95.33;102544.63;5079155;28;20032;-85
2022/03/16 01:00:29;;;;;;;33.22;17.88;;;;;;;2.12;94.55;102545.59;5096813;28;20028;-85
2022/03/16 01:03:25;;;;;;;27.45;16.92;;;;;;;2.11;94.42;102541.22;5096705;28;20063;-84
2022/03/16 01:12:53;;;;;;;32.83;17.58;;;;;;;1.96;94.80;102529.38;5014496;28;20088;-84
2022/03/16 01:15:23;;;;;;;29.00;17.45;;;;;;;1.91;94.76;102533.88;5014405;28;20474;-85
2022/03/16 01:17:51;;;;;;;25.23;15.68;;;;;;;1.87;95.00;102530.50;5014841;28;20447;-85
2022/03/16 01:20:20;;;;;;;31.67;17.70;;;;;;;1.84;95.08;102534.97;5065900;28;20154;-85
2022/03/16 01:22:45;;;;;;;30.00;17.67;;;;;;;1.82;95.08;102536.75;5096073;28;20060;-85
2022/03/16 01:25:11;;;;;;;27.80;16.42;;;;;;;1.78;95.38;102536.00;5096254;28;20066;-85
2022/03/16 01:27:37;;;;;;;23.95;15.73;;;;;;;1.74;95.39;102539.59;5096416;28;20067;-85
2022/03/16 01:30:04;;;;;;;26.27;15.68;;;;;;;1.68;95.26;102530.13;5096192;28;20444;-85
2022/03/16 01:32:39;;;;;;;27.27;16.45;;;;;;;1.64;95.15;102528.47;5096259;28;20024;-84
2022/03/16 01:35:25;;;;;;;26.30;15.88;;;;;;;1.62;94.78;102534.69;5096374;28;20111;-85
2022/03/16 01:44:48;;;;;;;31.60;18.10;;;;;;;1.58;94.81;102524.25;5061309;28;20553;-85
2022/03/16 01:53:32;;;;;;;30.90;17.50;;;;;;;1.52;95.18;102527.03;5096203;28;20116;-85
2022/03/16 01:55:59;;;;;;;29.63;17.95;;;;;;;1.54;95.06;102530.47;5093985;28;20047;-84
2022/03/16 02:05:37;;;;;;;36.40;21.03;;;;;;;1.61;95.47;102525.91;4993948;28;20078;-84
2022/03/16 02:08:08;;;;;;;30.88;19.08;;;;;;;1.59;96.03;102520.72;4993771;28;20100;-84
2022/03/16 02:20:39;;;;;;;28.25;18.83;;;;;;;1.53;96.05;102502.50;4993790;28;20088;-84
2022/03/16 02:26:54;;;;;;;30.70;20.30;;;;;;;1.57;96.47;102490.19;4993873;28;20032;-85
2022/03/16 02:29:44;;;;;;;35.58;21.38;;;;;;;1.55;96.73;102484.09;4993230;28;20042;-84
2022/03/16 02:35:54;;;;;;;33.28;20.90;;;;;;;1.51;98.00;102485.09;4993478;28;20060;-84
2022/03/16 02:48:31;;;;;;;38.13;22.77;;;;;;;1.40;98.94;102488.88;5047912;28;20074;-84
2022/03/16 02:50:59;;;;;;;39.63;22.73;;;;;;;1.38;98.90;102498.53;5094712;28;20024;-84
2022/03/16 02:53:25;;;;;;;35.42;20.80;;;;;;;1.34;98.81;102496.88;5094186;28;20038;-84
2022/03/16 02:55:54;;;;;;;37.88;22.35;;;;;;;1.30;98.69;102484.75;5091545;28;20036;-83
2022/03/16 02:58:23;;;;;;;41.50;23.42;;;;;;;1.28;98.57;102497.03;5056401;28;20481;-85
2022/03/16 03:23:43;;;;;;;43.08;23.33;;;;;;;1.07;97.80;102474.81;4973290;28;20070;-84
2022/03/16 03:26:09;;;;;;;43.17;23.45;;;;;;;1.05;97.73;102477.47;5062477;28;20057;-84
2022/03/16 03:28:35;;;;;;;44.20;24.42;;;;;;;1.03;97.85;102474.06;5074065;28;20120;-84
2022/03/16 03:31:00;;;;;;;43.22;24.52;;;;;;;1.00;98.07;102471.50;5073405;28;20028;-84
2022/03/16 03:33:36;;;;;;;54.95;27.88;;;;;;;0.98;98.46;102467.19;5073266;28;20350;-84
2022/03/16 03:36:05;;;;;;;42.95;24.83;;;;;;;0.94;98.82;102469.03;5074073;28;20115;-84
2022/03/16 03:42:15;;;;;;;53.17;28.10;;;;;;;0.87;98.92;102467.47;5073577;28;20086;-84
2022/03/16 03:44:41;;;;;;;55.60;27.92;;;;;;;0.85;99.17;102466.59;5074171;28;20469;-84
2022/03/16 03:47:09;;;;;;;47.22;27.10;;;;;;;0.82;98.99;102461.44;5073157;28;20077;-84
2022/03/16 03:49:36;;;;;;;49.20;26.83;;;;;;;0.84;99.02;102460.50;5073043;28;20052;-85
2022/03/16 03:52:02;;;;;;;52.50;27.25;;;;;;;0.88;98.95;102469.16;5073298;28;20103;-85
2022/03/16 03:55:15;;;;;;;56.22;28.13;;;;;;;0.91;99.24;102476.09;5073200;28;20489;-85
2022/03/16 04:04:31;;;;;;;57.88;31.02;;;;;;;0.93;99.69;102467.31;5010849;28;20517;-84
2022/03/16 04:06:56;;;;;;;58.88;30.75;;;;;;;0.92;99.66;102465.56;5011073;28;20041;-84
2022/03/16 04:12:44;;;;;;;51.95;29.90;;;;;;;0.91;99.36;102465.59;5011311;28;20116;-84
2022/03/16 04:15:10;;;;;;;59.45;32.63;;;;;;;0.88;99.02;102462.19;5038878;28;20086;-84
2022/03/16 04:17:36;;;;;;;54.50;30.63;;;;;;;0.92;98.87;102462.09;5072723;28;20025;-84
2022/03/16 04:20:08;;;;;;;61.90;32.70;;;;;;;0.92;98.88;102470.81;5077464;28;20038;-84
2022/03/16 04:22:34;;;;;;;59.70;32.13;;;;;;;0.92;99.02;102470.81;5076884;28;20033;-84
2022/03/16 04:25:00;;;;;;;58.67;31.13;;;;;;;0.88;99.06;102471.78;5076963;28;20124;-84
2022/03/16 04:27:34;;;;;;;53.13;31.02;;;;;;;0.88;98.94;102477.03;5077116;28;20032;-84
2022/03/16 04:30:00;;;;;;;77.55;35.60;;;;;;;0.87;98.77;102476.16;5077122;28;20051;-84
2022/03/16 04:32:25;;;;;;;59.42;32.50;;;;;;;0.92;99.43;102468.19;5077010;28;20032;-85
2022/03/16 04:41:02;;;;;;;77.90;37.55;;;;;;;0.96;100.00;102475.09;5077094;28;20043;-85
2022/03/16 04:43:27;;;;;;;66.05;32.13;;;;;;;0.94;100.00;102463.78;5076681;28;20033;-85
2022/03/16 04:45:53;;;;;;;55.20;30.23;;;;;;;0.92;100.00;102470.81;5059098;28;20128;-86
2022/03/16 04:48:18;;;;;;;64.13;32.20;;;;;;;0.93;100.00;102461.22;5077648;28;20043;-86
2022/03/16 04:50:43;;;;;;;67.00;31.48;;;;;;;1.01;100.00;102459.25;5077466;28;20040;-86
2022/03/16 04:53:09;;;;;;;59.65;31.30;;;;;;;1.07;100.00;102461.72;5077395;28;20481;-86
2022/03/16 04:55:36;;;;;;;53.05;28.92;;;;;;;1.07;100.00;102456.47;5077303;28;20032;-85
2022/03/16 04:58:02;;;;;;;56.97;29.20;;;;;;;1.08;100.00;102449.50;5077847;28;20059;-85
2022/03/16 05:00:28;;;;;;;54.70;29.25;;;;;;;1.08;100.00;102447.72;5077405;28;20028;-85
2022/03/16 05:02:53;;;;;;;58.35;29.63;;;;;;;1.11;100.00;102444.16;5058855;28;20435;-84
2022/03/16 05:05:18;;;;;;;49.35;26.60;;;;;;;1.15;100.00;102451.03;5076662;28;20157;-84
2022/03/16 05:07:44;;;;;;;54.33;27.83;;;;;;;1.26;100.00;102449.00;5076226;28;20056;-84
2022/03/16 05:10:09;;;;;;;63.38;30.73;;;;;;;1.40;100.00;102451.25;5076011;28;20040;-84
2022/03/16 05:12:39;;;;;;;63.78;30.90;;;;;;;1.51;100.00;102451.00;5076103;28;20044;-86
2022/03/16 05:15:24;;;;;;;49.35;26.23;;;;;;;1.55;100.00;102444.75;5076086;28;20032;-85
2022/03/16 05:17:50;;;;;;;52.65;28.45;;;;;;;1.62;100.00;102446.31;5075698;28;20051;-85
2022/03/16 05:20:16;;;;;;;46.08;26.70;;;;;;;1.60;100.00;102445.50;5076152;28;20461;-84
2022/03/16 05:22:42;;;;;;;57.58;27.95;;;;;;;1.58;100.00;102445.53;5076066;28;20039;-84
2022/03/16 05:25:08;;;;;;;63.90;31.48;;;;;;;1.62;100.00;102448.94;5076457;28;20032;-84
2022/03/16 05:27:34;;;;;;;49.95;25.70;;;;;;;1.55;100.00;102452.63;5075729;28;20079;-85
2022/03/16 05:36:24;;;;;;;53.22;27.77;;;;;;;1.32;100.00;102440.13;5076416;28;20439;-84
2022/03/16 05:45:34;;;;;;;49.47;27.58;;;;;;;1.26;100.00;102441.13;4985211;28;20450;-85
2022/03/16 05:54:59;;;;;;;58.03;31.98;;;;;;;1.26;100.00;102445.53;4975012;28;20049;-85
2022/03/16 05:57:25;;;;;;;54.03;30.38;;;;;;;1.24;100.00;102453.44;4974159;28;20080;-86
2022/03/16 05:59:51;;;;;;;59.33;31.38;;;;;;;1.22;100.00;102450.88;4974298;28;20043;-86
2022/03/16 06:09:12;;;;;;;75.45;36.05;;;;;;;1.45;100.00;102446.78;4984941;28;20150;-84
2022/03/16 06:11:39;;;;;;;61.35;31.70;;;;;;;1.49;100.00;102450.16;5072111;28;20044;-84
2022/03/16 06:14:05;;;;;;;75.85;38.17;;;;;;;1.57;100.00;102443.81;5075057;28;20070;-85
2022/03/16 06:16:30;;;;;;;78.75;40.40;;;;;;;1.77;100.00;102443.25;5075494;28;20486;-84
2022/03/16 06:18:55;;;;;;;80.53;39.58;;;;;;;1.91;100.00;102450.75;5075659;28;20460;-85
2022/03/16 06:21:21;;;;;;;81.80;39.25;;;;;;;2.20;100.00;102448.19;5057142;28;20044;-84
2022/03/16 06:23:52;;;;;;;69.18;36.33;;;;;;;2.42;100.00;102438.75;5056985;28;20461;-84
2022/03/16 06:26:17;;;;;;;65.03;35.85;;;;;;;2.56;100.00;102434.84;5075649;28;20485;-84
2022/03/16 06:28:43;;;;;;;67.22;36.80;;;;;;;2.70;100.00;102447.53;5075221;28;20032;-84
2022/03/16 06:31:08;;;;;;;56.75;34.22;;;;;;;2.83;100.00;102454.97;5074732;28;20112;-84
2022/03/16 06:33:34;;;;;;;52.42;32.67;;;;;;;2.95;100.00;102453.72;5075374;28;20056;-84
2022/03/16 06:35:59;;;;;;;53.88;33.42;;;;;;;3.05;100.00;102456.06;5074782;28;20059;-84
2022/03/16 06:38:25;;;;;;;55.70;32.70;;;;;;;3.10;100.00;102451.50;5075050;28;20499;-84
2022/03/16 06:40:53;;;;;;;49.75;31.40;;;;;;;3.18;100.00;102450.34;5073802;28;20032;-83
2022/03/16 06:43:21;;;;;;;49.30;31.13;;;;;;;3.27;100.00;102450.91;5074486;28;20043;-84
2022/03/16 06:45:49;;;;;;;47.90;29.77;;;;;;;3.29;100.00;102447.34;5074866;28;20113;-83
2022/03/16 06:48:15;;;;;;;42.38;27.95;;;;;;;3.33;100.00;102448.09;5074621;28;20064;-83
2022/03/16 06:50:40;;;;;;;44.10;29.65;;;;;;;3.37;100.00;102448.84;5074453;28;20457;-84
2022/03/16 06:53:06;;;;;;;47.13;28.42;;;;;;;3.44;100.00;102451.22;5074527;28;20469;-85
2022/03/16 06:55:31;;;;;;;45.70;29.23;;;;;;;3.48;100.00;102444.94;5074184;28;20488;-83
2022/03/16 06:57:57;;;;;;;47.10;30.33;;;;;;;3.57;100.00;102438.50;5074443;28;20048;-83
2022/03/16 07:00:22;;;;;;;42.92;29.10;;;;;;;3.65;100.00;102444.31;5056538;28;20450;-83
2022/03/16 07:02:56;;;;;;;43.42;27.55;;;;;;;3.72;99.91;102444.97;5074046;28;20032;-85
2022/03/16 07:05:25;;;;;;;37.67;25.90;;;;;;;3.81;99.25;102460.44;5074062;28;20548;-85
2022/03/16 07:07:51;;;;;;;41.83;26.02;;;;;;;3.87;98.20;102475.16;5073936;28;20036;-83
2022/03/16 07:10:16;;;;;;;38.80;24.95;;;;;;;3.93;97.60;102484.63;5073739;28;20028;-85
2022/03/16 07:12:42;;;;;;;35.13;24.58;;;;;;;4.05;97.00;102481.53;5074002;28;20035;-86
2022/03/16 07:15:08;;;;;;;36.20;24.17;;;;;;;4.13;96.57;102486.50;5074192;28;20024;-85
2022/03/16 07:17:33;;;;;;;36.45;23.90;;;;;;;4.21;96.62;102481.81;5073381;28;20036;-84
2022/03/16 07:19:58;;;;;;;32.53;23.10;;;;;;;4.28;95.45;102485.94;5056392;28;20033;-84
2022/03/16 07:22:24;;;;;;;35.30;24.50;;;;;;;4.34;95.17;102480.41;5074260;28;20035;-84
2022/03/16 07:24:49;;;;;;;33.10;23.67;;;;;;;4.43;95.10;102471.31;5074447;28;20040;-84
2022/03/16 07:27:17;;;;;;;32.60;22.77;;;;;;;4.48;94.08;102463.22;5056392;28;20036;-84
2022/03/16 07:29:52;;;;;;;32.90;23.00;;;;;;;4.59;94.04;102450.50;5055786;28;20039;-85
2022/03/16 07:32:17;;;;;;;29.63;21.67;;;;;;;4.67;93.79;102443.16;5056260;28;20033;-84
2022/03/16 07:34:43;;;;;;;31.42;21.33;;;;;;;4.77;93.59;102443.63;5055576;28;20063;-84
2022/03/16 07:37:09;;;;;;;28.73;19.98;;;;;;;4.84;92.76;102437.19;5074067;28;20033;-84
2022/03/16 07:39:34;;;;;;;29.70;21.67;;;;;;;4.89;92.04;102440.47;5073454;28;20379;-83
2022/03/16 07:42:00;;;;;;;28.20;20.85;;;;;;;4.91;91.49;102438.66;5073088;28;20032;-83
2022/03/16 07:44:25;;;;;;;29.17;20.83;;;;;;;4.97;91.21;102431.38;5074117;28;20033;-83
2022/03/16 07:46:50;;;;;;;31.27;18.77;;;;;;;5.06;90.96;102425.72;5073571;28;20476;-83
2022/03/16 07:49:16;;;;;;;28.40;19.35;;;;;;;5.13;90.28;102435.09;5073284;28;20123;-83
2022/03/16 07:51:41;;;;;;;28.20;19.30;;;;;;;5.22;90.30;102429.44;5055692;28;20036;-82
2022/03/16 07:54:07;;;;;;;26.45;19.00;;;;;;;5.30;89.31;102429.97;5055277;28;20202;-85
2022/03/16 07:56:32;;;;;;;26.23;18.92;;;;;;;5.38;88.95;102440.19;5073064;28;20128;-86
2022/03/16 07:59:01;;;;;;;23.63;17.48;;;;;;;5.54;88.47;102444.78;5055876;28;20415;-84
2022/03/16 08:01:28;;;;;;;26.98;18.25;;;;;;;5.73;87.48;102445.72;5073227;28;20024;-84
2022/03/16 08:03:54;;;;;;;25.23;18.00;;;;;;;6.00;86.93;102434.84;5073189;28;20040;-84
2022/03/16 08:06:19;;;;;;;25.25;17.42;;;;;;;6.21;85.50;102425.09;5073186;28;20029;-84
2022/03/16 08:08:45;;;;;;;24.23;17.60;;;;;;;6.40;84.32;102425.06;5073176;28;20469;-84
2022/03/16 08:11:10;;;;;;;26.40;17.77;;;;;;;6.42;84.08;102428.50;5073160;28;20025;-84
2022/03/16 08:13:36;;;;;;;22.85;16.25;;;;;;;6.46;83.58;102431.84;5055425;28;20029;-85
2022/03/16 08:16:03;;;;;;;24.73;16.60;;;;;;;6.49;83.04;102434.34;5039305;28;20028;-83
2022/03/16 08:18:29;;;;;;;24.02;16.75;;;;;;;6.37;83.31;102430.50;5072784;28;20028;-84
2022/03/16 08:20:54;;;;;;;23.90;16.48;;;;;;;6.47;83.25;102437.06;5073443;28;20579;-84
2022/03/16 08:23:20;;;;;;;22.52;15.60;;;;;;;6.72;82.93;102435.91;5055540;28;20445;-86
2022/03/16 08:25:46;;;;;;;21.88;15.10;;;;;;;6.96;81.54;102443.56;5055396;28;20461;-86
2022/03/16 08:28:12;;;;;;;20.27;15.00;;;;;;;7.32;81.48;102430.25;5072932;28;20063;-86
2022/03/16 08:30:38;;;;;;;22.20;14.15;;;;;;;7.61;79.82;102419.91;5072910;28;20064;-85
2022/03/16 08:33:05;;;;;;;20.38;14.15;;;;;;;7.92;78.21;102408.53;5072567;28;20044;-83
2022/03/16 08:35:31;;;;;;;21.58;14.52;;;;;;;8.03;77.07;102397.34;5056196;28;20033;-85
2022/03/16 08:37:56;;;;;;;22.42;14.00;;;;;;;8.38;76.15;102398.97;5072736;28;20039;-86
2022/03/16 08:40:22;;;;;;;16.48;12.98;;;;;;;8.59;74.30;102395.13;5073325;28;20119;-85
2022/03/16 08:42:49;;;;;;;19.17;12.20;;;;;;;8.65;72.63;102397.41;5072826;28;20115;-84
2022/03/16 08:45:15;;;;;;;18.30;12.48;;;;;;;8.90;70.88;102388.03;5072707;28;20123;-86
2022/03/16 08:47:43;;;;;;;16.17;12.10;;;;;;;9.73;69.66;102398.09;5072855;28;20111;-85
2022/03/16 08:50:09;;;;;;;16.42;12.27;;;;;;;9.93;67.80;102403.97;5072397;28;20040;-85
2022/03/16 08:52:35;;;;;;;17.50;12.15;;;;;;;9.68;67.07;102405.50;5054931;28;20116;-85
2022/03/16 08:55:00;;;;;;;14.95;11.85;;;;;;;9.60;68.12;102402.47;5054362;28;20120;-85
2022/03/16 08:57:26;;;;;;;15.93;11.68;;;;;;;9.60;67.81;102398.03;5072344;28;20132;-87
2022/03/16 08:59:53;;;;;;;15.80;11.23;;;;;;;9.97;67.12;102401.03;5073121;28;20485;-87
2022/03/16 09:02:18;;;;;;;15.45;11.15;;;;;;;10.58;66.38;102398.06;5072565;28;20036;-84
2022/03/16 09:04:44;;;;;;;15.30;11.13;;;;;;;10.74;64.25;102409.38;5074705;28;20036;-86
2022/03/16 09:07:09;;;;;;;17.83;11.32;;;;;;;11.63;62.02;102410.47;5076365;28;20059;-85
2022/03/16 09:09:44;;;;;;;14.25;9.90;;;;;;;12.76;56.91;102404.19;5076377;28;20025;-86
2022/03/16 09:12:11;;;;;;;12.77;10.07;;;;;;;13.40;54.46;102401.97;5076708;28;20055;-87
2022/03/16 09:14:37;;;;;;;11.52;9.73;;;;;;;14.36;52.98;102407.75;5076386;28;20086;-87
2022/03/16 09:17:03;;;;;;;13.60;9.32;;;;;;;14.90;50.55;102405.97;5058360;28;20036;-86
2022/03/16 09:19:28;;;;;;;13.35;10.23;;;;;;;14.56;49.36;102398.06;5058186;28;20044;-85
2022/03/16 09:21:54;;;;;;;12.93;9.40;;;;;;;14.83;49.13;102401.28;5058819;28;20094;-85
2022/03/16 09:24:25;;;;;;;11.88;9.65;;;;;;;14.42;49.39;102393.84;5058167;28;20119;-86
2022/03/16 09:33:44;;;;;;;11.68;9.43;;;;;;;14.98;47.95;102406.16;5048419;28;20085;-85
2022/03/16 09:36:15;;;;;;;11.63;9.88;;;;;;;14.57;48.42;102391.72;5058520;28;20122;-85
2022/03/16 09:38:47;;;;;;;16.77;9.35;;;;;;;13.94;50.12;102396.84;5076003;28;20107;-86
2022/03/16 09:41:15;;;;;;;11.38;9.18;;;;;;;14.22;50.98;102392.78;5076137;28;20202;-85
2022/03/16 09:43:47;;;;;;;12.07;9.07;;;;;;;13.85;50.56;102390.44;5057808;28;20033;-86
2022/03/16 09:46:20;;;;;;;;;;;;;;;13.94;51.51;102380.78;5075944;28;20059;-86
2022/03/16 09:49:03;;;;;;;11.85;8.95;;;;;;;14.71;49.42;102376.38;5058149;28;20348;-85
2022/03/16 09:51:35;;;;;;;9.82;8.80;;;;;;;14.65;49.50;102388.44;5058431;28;20052;-85
2022/03/16 09:54:07;;;;;;;10.50;9.23;;;;;;;13.71;51.40;102378.13;5076231;28;20103;-85
2022/03/16 09:56:38;;;;;;;11.52;8.43;;;;;;;13.80;50.75;102381.91;5060897;28;20106;-85
2022/03/16 09:59:04;;;;;;;10.30;9.07;;;;;;;13.67;51.84;102381.19;5096439;28;20060;-85
2022/03/16 10:01:29;;;;;;;12.18;9.25;;;;;;;13.19;52.10;102383.03;5061149;28;20056;-84
2022/03/16 10:03:59;;;;;;;11.40;8.68;;;;;;;13.02;52.90;102371.00;5096261;28;20461;-87
2022/03/16 10:06:30;;;;;;;12.68;8.48;;;;;;;12.82;53.54;102374.34;5095792;28;20035;-86
2022/03/16 10:14:27;;;;;;;10.30;9.25;;;;;;;12.89;55.59;102372.91;5095532;28;20089;-85
2022/03/16 10:23:17;;;;;;;10.15;8.35;;;;;;;13.66;52.59;102375.00;5095700;28;19946;-85
2022/03/16 10:25:58;;;;;;;10.90;9.00;;;;;;;13.63;53.17;102379.72;5095005;28;20113;-85
2022/03/16 10:35:15;;;;;;;11.57;8.93;;;;;;;14.57;50.53;102362.25;5023356;28;19915;-86
2022/03/16 10:37:41;;;;;;;14.50;8.70;;;;;;;14.72;49.79;102356.59;5077588;28;20135;-86
2022/03/16 10:46:38;;;;;;;12.45;9.43;;;;;;;16.06;46.76;102357.56;5095076;28;20058;-85
2022/03/16 10:49:12;;;;;;;14.18;9.32;;;;;;;16.40;45.27;102356.19;5094631;28;20464;-86
2022/03/16 10:51:38;;;;;;;14.75;9.25;;;;;;;16.43;46.12;102351.53;5076984;28;20349;-87
2022/03/16 10:54:05;;;;;;;9.88;8.82;;;;;;;17.48;44.22;102348.00;5076973;28;20123;-86
2022/03/16 10:56:31;;;;;;;10.35;9.13;;;;;;;18.15;42.85;102351.34;5076463;28;20036;-86
2022/03/16 10:58:58;;;;;;;9.73;8.68;;;;;;;18.67;41.31;102347.06;5076781;28;20476;-86
2022/03/16 11:01:27;;;;;;;9.80;8.45;;;;;;;18.59;40.32;102345.16;5094772;28;20036;-85
2022/03/16 11:03:58;;;;;;;10.15;9.00;;;;;;;17.98;40.94;102344.91;5094878;28;20028;-86
2022/03/16 11:06:26;;;;;;;;;;;;;;;16.52;44.78;102338.09;5095024;28;20055;-86
2022/03/16 11:09:32;;;;;;;10.07;9.05;;;;;;;15.86;46.79;102339.59;5094444;28;19912;-85
2022/03/16 11:14:50;;;;;;;11.48;9.68;;;;;;;15.12;49.70;102342.50;5094649;28;20201;-86
2022/03/16 11:17:31;;;;;;;13.20;8.73;;;;;;;15.05;49.24;102347.53;5077260;28;20035;-84
2022/03/16 11:20:08;;;;;;;14.52;9.15;;;;;;;14.45;50.08;102365.94;5095067;28;20032;-85
2022/03/16 11:25:35;;;;;;;11.55;9.15;;;;;;;15.53;49.17;102359.50;5094316;28;20113;-84
2022/03/16 11:28:06;;;;;;;11.90;9.95;;;;;;;16.19;47.48;102364.38;5094130;28;20032;-86
2022/03/16 11:30:36;;;;;;;10.95;9.73;;;;;;;15.97;47.67;102359.25;5094892;28;20081;-86
2022/03/16 11:33:05;;;;;;;15.18;8.90;;;;;;;15.63;47.97;102359.53;5094748;28;20028;-86
2022/03/16 11:35:34;;;;;;;11.50;9.70;;;;;;;15.17;48.38;102353.69;5094487;28;20024;-86
2022/03/16 11:38:08;;;;;;;12.73;9.32;;;;;;;14.93;49.87;102346.75;5093382;28;20039;-78
2022/03/16 11:40:34;;;;;;;10.05;8.95;;;;;;;15.14;50.43;102345.91;5093817;28;20032;-79
2022/03/16 11:43:04;;;;;;;10.63;9.52;;;;;;;15.05;50.90;102344.00;5093240;28;20063;-79
2022/03/16 11:45:41;;;;;;;12.65;8.95;;;;;;;14.82;50.41;102333.41;5092642;28;20076;-79
2022/03/16 11:48:31;;;;;;;12.52;9.02;;;;;;;14.95;50.50;102331.41;5093405;28;20020;-78
2022/03/16 11:51:08;;;;;;;12.60;8.57;;;;;;;15.24;50.49;102329.84;5092965;28;20027;-79
2022/03/16 11:53:45;;;;;;;10.82;8.80;;;;;;;15.12;49.91;102345.16;5075014;28;20032;-78
2022/03/16 11:56:25;;;;;;;11.35;9.23;;;;;;;14.85;51.18;102340.34;5092649;28;20028;-77
2022/03/16 11:58:53;;;;;;;9.73;8.65;;;;;;;14.86;51.58;102345.59;5093851;28;20024;-79
2022/03/16 12:01:34;;;;;;;12.30;8.73;;;;;;;14.59;52.31;102341.53;5092829;28;20032;-77
2022/03/16 12:04:11;;;;;;;10.52;8.95;;;;;;;14.67;52.46;102346.28;5092565;28;20042;-77
2022/03/16 12:07:05;;;;;;;13.43;9.00;;;;;;;14.38;53.11;102338.84;5093069;28;20115;-78
2022/03/16 12:09:30;;;;;;;12.07;9.57;;;;;;;14.80;52.51;102344.28;5092609;28;20028;-79
2022/03/16 12:15:04;;;;;;;11.23;9.55;;;;;;;15.32;50.98;102330.06;5092195;28;20130;-77
2022/03/16 12:17:29;;;;;;;10.88;9.77;;;;;;;15.07;51.37;102320.59;5092493;28;20129;-79
2022/03/16 12:20:14;;;;;;;11.25;9.32;;;;;;;14.58;52.43;102317.56;5091978;28;20134;-78
2022/03/16 12:22:48;;;;;;;13.07;9.52;;;;;;;14.08;54.00;102316.31;5092639;28;20380;-78
2022/03/16 12:25:22;;;;;;;18.85;9.52;;;;;;;13.95;54.87;102310.25;5092585;28;20036;-78
2022/03/16 12:30:59;;;;;;;13.35;9.77;;;;;;;13.87;55.35;102302.88;5092492;28;20109;-78
2022/03/16 12:33:30;;;;;;;12.90;9.45;;;;;;;13.85;55.52;102303.94;5092182;28;20086;-78
2022/03/16 12:35:59;;;;;;;;;;;;;;;13.55;56.59;102303.66;5092256;28;20533;-78
2022/03/16 12:38:27;;;;;;;14.13;9.60;;;;;;;13.33;57.19;102307.16;5092425;28;20263;-78
2022/03/16 12:43:37;;;;;;;16.13;10.20;;;;;;;13.20;58.27;102285.88;5096157;28;20379;-79
2022/03/16 12:46:15;;;;;;;14.63;9.85;;;;;;;13.19;58.27;102278.81;5095829;28;20115;-78
2022/03/16 12:48:41;;;;;;;21.67;10.23;;;;;;;13.03;58.27;102273.84;5095880;28;20063;-78
2022/03/16 12:51:06;;;;;;;15.00;10.80;;;;;;;12.76;59.03;102266.13;5077390;28;20451;-78
2022/03/16 12:53:44;;;;;;;13.27;9.85;;;;;;;12.99;59.78;102269.72;5095813;28;20078;-78
2022/03/16 12:56:16;;;;;;;13.30;10.45;;;;;;;12.94;58.77;102253.16;5077085;28;20028;-77
2022/03/16 12:58:42;;;;;;;15.52;10.10;;;;;;;12.95;59.39;102244.19;5095642;28;20032;-80
2022/03/16 13:01:16;;;;;;;14.80;10.48;;;;;;;12.93;58.86;102256.84;5095972;28;20039;-77
2022/03/16 13:03:42;;;;;;;16.35;10.13;;;;;;;12.84;59.42;102253.06;5095608;28;20040;-79
2022/03/16 13:06:18;;;;;;;15.35;10.57;;;;;;;12.77;60.12;102245.66;5096522;28;20024;-79
2022/03/16 13:08:52;;;;;;;12.88;10.27;;;;;;;12.61;60.21;102237.97;5095473;28;20520;-79
2022/03/16 13:11:24;;;;;;;14.15;9.90;;;;;;;12.76;60.35;102234.09;5095681;28;20024;-79
2022/03/16 13:14:05;;;;;;;14.10;9.73;;;;;;;12.95;59.63;102224.66;5095123;28;20028;-79
2022/03/16 13:16:42;;;;;;;12.93;9.63;;;;;;;13.14;59.25;102226.72;5095289;28;20046;-78
2022/03/16 13:19:13;;;;;;;15.23;10.40;;;;;;;13.19;58.95;102219.19;5076910;28;20643;-79
2022/03/16 13:21:39;;;;;;;18.83;10.47;;;;;;;13.22;59.03;102218.94;5094838;28;20337;-79
2022/03/16 13:24:09;;;;;;;17.88;10.48;;;;;;;13.09;59.15;102199.50;5094912;28;20263;-79
2022/03/16 13:26:36;;;;;;;15.00;11.02;;;;;;;13.22;58.62;102210.91;5095048;28;20482;-78
2022/03/16 13:29:05;;;;;;;14.60;11.35;;;;;;;13.03;59.19;102201.72;5095880;28;20024;-77
2022/03/16 13:31:31;;;;;;;17.42;11.18;;;;;;;13.31;59.10;102198.63;5095306;28;20046;-80
2022/03/16 13:34:01;;;;;;;21.73;11.73;;;;;;;13.49;59.20;102197.16;5094879;28;20369;-78
2022/03/16 13:36:39;;;;;;;23.92;11.77;;;;;;;13.70;57.31;102194.59;5095567;28;20073;-78
2022/03/16 13:39:22;;;;;;;16.30;11.02;;;;;;;13.85;57.12;102195.13;5094969;28;20016;-79
2022/03/16 13:42:15;;;;;;;19.75;12.35;;;;;;;13.80;57.59;102188.47;5094694;28;20387;-78
2022/03/16 13:44:52;;;;;;;19.05;12.02;;;;;;;13.74;57.30;102189.81;5095227;28;20099;-78
2022/03/16 13:47:17;;;;;;;19.52;12.10;;;;;;;13.79;57.86;102182.25;5095098;28;20021;-79
2022/03/16 13:49:46;;;;;;;19.75;11.95;;;;;;;13.70;57.75;102172.31;5094633;28;20306;-80
2022/03/16 13:52:14;;;;;;;22.60;12.02;;;;;;;13.60;57.38;102172.25;5094468;28;20077;-78
2022/03/16 13:54:41;;;;;;;29.05;12.50;;;;;;;13.54;58.36;102168.25;5094525;28;20107;-79
2022/03/16 13:57:11;;;;;;;13.70;11.60;;;;;;;13.40;59.37;102163.16;5094186;28;20161;-78
2022/03/16 13:59:38;;;;;;;18.73;10.32;;;;;;;13.41;59.17;102151.50;5094392;28;20387;-78
2022/03/16 14:02:23;;;;;;;16.45;11.65;;;;;;;13.42;60.38;102142.53;5094407;28;20502;-79
2022/03/16 14:04:59;;;;;;;19.02;11.43;;;;;;;13.34;60.22;102145.81;5094851;28;20028;-79
2022/03/16 14:07:28;;;;;;;16.98;11.90;;;;;;;13.50;60.34;102133.88;5094445;28;20122;-80
2022/03/16 14:09:58;;;;;;;13.07;10.43;;;;;;;13.39;59.21;102134.72;5094782;28;20066;-79
2022/03/16 14:12:26;;;;;;;15.77;11.65;;;;;;;13.17;60.10;102120.44;5096555;28;20103;-79
2022/03/16 14:15:16;;;;;;;15.93;11.30;;;;;;;13.08;60.62;102122.97;5099332;28;20028;-79
2022/03/16 14:17:46;;;;;;;22.05;12.65;;;;;;;12.93;61.56;102109.03;5097770;28;20040;-78
2022/03/16 14:20:14;;;;;;;15.55;11.38;;;;;;;13.05;61.61;102095.56;5097764;28;20028;-79
2022/03/16 14:22:41;;;;;;;16.63;11.90;;;;;;;12.88;61.85;102098.72;5096052;28;20028;-79
2022/03/16 14:25:19;;;;;;;17.10;11.25;;;;;;;12.76;62.55;102089.03;5094901;28;20077;-79
2022/03/16 14:27:49;;;;;;;19.35;11.60;;;;;;;12.68;62.82;102085.16;5094390;28;20061;-79
2022/03/16 14:30:17;;;;;;;16.90;11.63;;;;;;;12.55;63.19;102089.78;5094189;28;20387;-79